Prescott, Michigan
Current Conditions -  °F | °C
As of 7:33 AM on Monday 20 Oct 2014 (Local Time) from KOSC Reporting Station
Overcast Overcast  
Wind Chill: 41°   Ceiling: 3700
Heat Index: 46°   Visibility: 7mi
Dew Point: 45°   Wind: 8mph
Humidity: 97%   Direction: 220°SW
Pressure: 29.77"   Gusts: NA
Location:  44.19°N, 83.93°W
Report Text: KOSC 201133Z AUTO 22007KT 7SM OVC037 07/07 A2977 RMK AO2 T00750071
Loading
Personal Weather Stations






























Interactive Weather Map
Tropical Storm Tracking
New forecast layout! Learn more

10-Day Weather Forecast

Advertisements
Track Severe Weather on mobile